createdAt,value
2023-02-11T00:01:57.935Z,101759.63
2023-02-11T00:05:02.990Z,101766.34
2023-02-11T00:08:07.538Z,101775.56
2023-02-11T00:11:17.027Z,101766.59
2023-02-11T00:14:20.873Z,101775.00
2023-02-11T00:17:30.405Z,101763.97
2023-02-11T00:20:34.311Z,101787.28
2023-02-11T00:23:39.566Z,101786.78
2023-02-11T00:26:44.121Z,101799.06
2023-02-11T00:29:53.281Z,101787.13
2023-02-11T00:32:58.000Z,101786.16
2023-02-11T00:36:06.722Z,101783.00
2023-02-11T00:39:13.238Z,101792.34
2023-02-11T00:42:17.983Z,101792.19
2023-02-11T00:45:22.351Z,101796.28
2023-02-11T00:48:26.488Z,101799.34
2023-02-11T00:51:30.429Z,101801.09
2023-02-11T00:54:34.310Z,101805.09
2023-02-11T00:57:43.211Z,101803.94
2023-02-11T01:00:47.102Z,101806.97
2023-02-11T01:03:51.730Z,101807.91
2023-02-11T01:07:05.974Z,101800.78
2023-02-11T01:10:09.726Z,101810.63
2023-02-11T01:13:13.773Z,101816.06
2023-02-11T01:16:22.952Z,101816.38
2023-02-11T01:19:35.063Z,101818.69
2023-02-11T01:22:46.358Z,101816.31
2023-02-11T01:25:52.718Z,101815.31
2023-02-11T01:29:01.702Z,101811.59
2023-02-11T01:32:10.978Z,101819.88
2023-02-11T01:35:25.511Z,101805.97
2023-02-11T01:38:37.221Z,101829.72
2023-02-11T01:41:42.147Z,101816.88
2023-02-11T01:44:47.247Z,101832.28
2023-02-11T01:47:52.455Z,101836.06
2023-02-11T01:51:13.277Z,101843.06
2023-02-11T01:54:40.836Z,101836.56
2023-02-11T01:57:57.472Z,101852.81
2023-02-11T02:01:03.823Z,101856.19
2023-02-11T02:04:08.705Z,101863.00
2023-02-11T02:07:20.553Z,101867.97
2023-02-11T02:10:28.367Z,101869.66
2023-02-11T02:13:35.386Z,101874.75
2023-02-11T02:16:59.256Z,101862.88
2023-02-11T02:20:33.003Z,101874.59
2023-02-11T02:24:05.525Z,101882.78
2023-02-11T02:27:18.070Z,101882.88
2023-02-11T02:30:39.030Z,101904.41
2023-02-11T02:33:47.628Z,101903.81
2023-02-11T02:41:03.249Z,101895.63
2023-02-11T02:44:09.125Z,101903.59
2023-02-11T02:47:14.006Z,101909.31
2023-02-11T02:50:32.251Z,101906.66
2023-02-11T02:54:01.539Z,101900.44
2023-02-11T02:57:31.380Z,101897.81
2023-02-11T03:00:40.733Z,101888.34
2023-02-11T03:07:45.803Z,101904.28
2023-02-11T03:10:53.283Z,101896.97
2023-02-11T03:14:02.059Z,101902.19
2023-02-11T03:17:17.982Z,101899.75
2023-02-11T03:20:25.260Z,101905.81
2023-02-11T03:23:50.600Z,101910.72
2023-02-11T03:26:57.313Z,101900.09
2023-02-11T03:30:10.760Z,101895.69
2023-02-11T03:33:36.431Z,101896.97
2023-02-11T03:36:46.536Z,101910.75
2023-02-11T03:40:02.073Z,101907.63
2023-02-11T03:43:26.423Z,101905.19
2023-02-11T03:46:42.798Z,101906.72
2023-02-11T03:50:00.324Z,101913.22
2023-02-11T03:53:05.374Z,101913.78
2023-02-11T03:56:15.350Z,101918.72
2023-02-11T03:59:19.780Z,101921.78
2023-02-11T04:02:28.007Z,101921.09
2023-02-11T04:05:42.514Z,101912.09
2023-02-11T04:08:56.755Z,101910.13
2023-02-11T04:12:11.114Z,101915.66
2023-02-11T04:15:14.793Z,101911.41
2023-02-11T04:18:18.706Z,101902.63
2023-02-11T04:21:24.519Z,101909.22
2023-02-11T04:24:28.897Z,101888.75
2023-02-11T04:27:42.631Z,101891.59
2023-02-11T04:30:57.208Z,101884.50
2023-02-11T04:34:01.148Z,101895.69
2023-02-11T04:37:15.753Z,101904.50
2023-02-11T04:40:19.480Z,101896.34
2023-02-11T04:43:23.387Z,101902.13
2023-02-11T04:46:27.689Z,101903.31
2023-02-11T04:49:37.675Z,101904.28
2023-02-11T04:52:41.515Z,101897.66
2023-02-11T04:55:45.699Z,101910.56
2023-02-11T04:58:49.345Z,101901.63
2023-02-11T05:01:53.806Z,101904.53
2023-02-11T05:05:02.302Z,101909.97
2023-02-11T05:08:07.003Z,101904.06
2023-02-11T05:11:17.655Z,101905.34
2023-02-11T05:14:22.105Z,101905.91
2023-02-11T05:17:25.891Z,101899.31
2023-02-11T05:20:31.520Z,101898.00
2023-02-11T05:23:36.020Z,101904.41
2023-02-11T05:26:39.846Z,101904.72
2023-02-11T05:29:53.472Z,101900.22
2023-02-11T05:32:57.901Z,101900.09
2023-02-11T05:36:04.541Z,101896.09
2023-02-11T05:39:08.437Z,101895.91
2023-02-11T05:42:13.340Z,101896.59
2023-02-11T05:45:17.412Z,101899.28
2023-02-11T05:48:21.169Z,101904.84
2023-02-11T05:51:27.708Z,101905.06
2023-02-11T05:54:31.963Z,101911.00
2023-02-11T05:57:46.077Z,101910.50
2023-02-11T06:00:55.092Z,101902.25
2023-02-11T06:03:59.361Z,101907.09
2023-02-11T06:07:05.276Z,101901.41
2023-02-11T06:10:10.784Z,101910.13
2023-02-11T06:13:15.983Z,101903.16
2023-02-11T06:16:32.030Z,101921.28
2023-02-11T06:19:36.421Z,101920.31
2023-02-11T06:22:40.985Z,101913.50
2023-02-11T06:25:47.638Z,101909.03
2023-02-11T06:28:57.120Z,101911.69
2023-02-11T06:32:06.088Z,101910.28
2023-02-11T06:35:12.092Z,101906.34
2023-02-11T06:38:16.279Z,101910.13
2023-02-11T06:41:21.149Z,101913.72
2023-02-11T06:44:25.606Z,101917.53
2023-02-11T06:47:29.816Z,101926.00
2023-02-11T06:50:43.989Z,101935.16
2023-02-11T06:53:48.350Z,101930.94
2023-02-11T06:56:56.748Z,101938.66
2023-02-11T07:00:00.741Z,101936.69
2023-02-11T07:03:16.982Z,101932.16
2023-02-11T07:06:25.350Z,101934.00
2023-02-11T07:09:33.946Z,101931.97
2023-02-11T07:12:47.691Z,101933.88
2023-02-11T07:16:06.541Z,101930.81
2023-02-11T07:19:10.638Z,101926.63
2023-02-11T07:22:14.771Z,101934.22
2023-02-11T07:25:19.116Z,101925.06
2023-02-11T07:28:29.089Z,101918.34
2023-02-11T07:31:40.779Z,101932.09
2023-02-11T07:34:44.511Z,101924.38
2023-02-11T07:37:49.025Z,101921.09
2023-02-11T07:40:52.895Z,101918.56
2023-02-11T07:43:57.431Z,101929.56
2023-02-11T07:47:06.471Z,101916.81
2023-02-11T07:50:11.089Z,101923.59
2023-02-11T07:53:15.122Z,101921.84
2023-02-11T07:56:24.119Z,101921.16
2023-02-11T07:59:28.330Z,101916.91
2023-02-11T08:02:32.630Z,101926.25
2023-02-11T08:05:39.382Z,101927.00
2023-02-11T08:08:53.196Z,101926.97
2023-02-11T08:11:57.387Z,101916.09
2023-02-11T08:15:06.542Z,101912.66
2023-02-11T08:18:18.107Z,101923.22
2023-02-11T08:21:22.385Z,101937.91
2023-02-11T08:24:36.187Z,101922.56
2023-02-11T08:27:41.465Z,101918.63
2023-02-11T08:30:45.850Z,101921.97
2023-02-11T08:33:50.083Z,101922.84
2023-02-11T08:37:04.984Z,101912.63
2023-02-11T08:40:20.161Z,101925.41
2023-02-11T08:43:24.094Z,101921.16
2023-02-11T08:46:33.016Z,101918.22
2023-02-11T08:49:37.964Z,101928.78
2023-02-11T08:52:46.604Z,101919.47
2023-02-11T08:55:52.102Z,101916.94
2023-02-11T08:58:57.150Z,101927.94
2023-02-11T09:02:06.465Z,101931.31
2023-02-11T09:05:10.444Z,101927.78
2023-02-11T09:08:24.162Z,101930.47
2023-02-11T09:11:36.033Z,101916.88
2023-02-11T09:14:40.106Z,101928.72
2023-02-11T09:17:44.230Z,101932.88
2023-02-11T09:21:05.381Z,101925.41
2023-02-11T09:24:14.613Z,101932.09
2023-02-11T09:27:18.676Z,101916.09
2023-02-11T09:30:23.348Z,101928.78
2023-02-11T09:33:39.540Z,101932.03
2023-02-11T09:36:55.113Z,101923.69
2023-02-11T09:40:02.103Z,101927.84
2023-02-11T09:43:17.284Z,101914.91
2023-02-11T09:46:23.883Z,101916.84
2023-02-11T09:49:43.210Z,101905.97
2023-02-11T09:53:01.364Z,101919.38
2023-02-11T09:56:25.740Z,101922.59
2023-02-11T09:59:41.173Z,101933.44
2023-02-11T10:03:22.250Z,101923.63
2023-02-11T10:06:40.009Z,101908.47
2023-02-11T10:10:16.332Z,101901.22
2023-02-11T10:13:33.989Z,101904.50
2023-02-11T10:20:38.232Z,101912.28
2023-02-11T10:23:47.961Z,101904.53
2023-02-11T10:27:09.282Z,101903.06
2023-02-11T10:30:33.359Z,101901.34
2023-02-11T10:33:54.882Z,101893.22
2023-02-11T10:37:13.852Z,101902.47
2023-02-11T10:40:24.637Z,101899.50
2023-02-11T10:43:33.769Z,101894.13
2023-02-11T10:46:40.848Z,101902.75
2023-02-11T10:49:46.967Z,101894.13
2023-02-11T10:53:24.821Z,101902.56
2023-02-11T10:56:37.689Z,101896.84
2023-02-11T10:59:43.852Z,101903.22
2023-02-11T11:02:55.679Z,101903.81
2023-02-11T11:06:02.875Z,101902.00
2023-02-11T11:09:31.920Z,101900.00
2023-02-11T11:12:49.324Z,101896.59
2023-02-11T11:19:31.176Z,101912.19
2023-02-11T11:22:36.656Z,101911.25
2023-02-11T11:25:46.478Z,101911.72
2023-02-11T11:28:50.926Z,101900.22
2023-02-11T11:32:05.185Z,101917.81
2023-02-11T11:35:44.161Z,101921.59
2023-02-11T11:39:00.400Z,101918.88
2023-02-11T11:42:40.492Z,101923.19
2023-02-11T11:46:00.058Z,101929.56
2023-02-11T11:49:31.245Z,101932.78
2023-02-11T11:53:05.899Z,101936.53
2023-02-11T11:56:24.101Z,101941.50
2023-02-11T11:59:30.704Z,101948.81
2023-02-11T12:02:56.914Z,101942.00
2023-02-11T12:06:14.160Z,101947.34
2023-02-11T12:09:50.808Z,101946.19
2023-02-11T12:13:23.259Z,101928.28
2023-02-11T12:17:04.537Z,101944.19
2023-02-11T12:20:30.774Z,101938.84
2023-02-11T12:24:12.535Z,101944.25
2023-02-11T12:27:37.095Z,101936.81
2023-02-11T12:34:52.444Z,101935.16
2023-02-11T12:38:08.810Z,101933.94
2023-02-11T12:41:44.468Z,101946.22
2023-02-11T12:49:05.850Z,101950.41
2023-02-11T12:56:01.976Z,101960.38
2023-02-11T12:59:14.455Z,101954.09
2023-02-11T13:02:37.288Z,101965.94
2023-02-11T13:05:42.572Z,101952.78
2023-02-11T13:08:52.107Z,101960.88
2023-02-11T13:12:23.525Z,101960.63
2023-02-11T13:15:27.668Z,101971.78
2023-02-11T13:18:38.288Z,101965.94
2023-02-11T13:22:37.085Z,101958.13
2023-02-11T13:30:47.197Z,101963.19
2023-02-11T13:34:01.736Z,101964.91
2023-02-11T13:37:06.280Z,101962.25
2023-02-11T13:40:20.139Z,101971.72
2023-02-11T13:43:29.232Z,101963.19
2023-02-11T13:47:00.148Z,101958.88
2023-02-11T13:50:08.702Z,101963.63
2023-02-11T13:53:15.063Z,101957.88
2023-02-11T13:56:37.113Z,101960.63
2023-02-11T13:59:48.189Z,101959.13
2023-02-11T14:03:30.678Z,101963.63
2023-02-11T14:06:57.874Z,101962.22
2023-02-11T14:10:01.595Z,101971.88
2023-02-11T14:13:30.096Z,101971.84
2023-02-11T14:20:44.462Z,101967.81
2023-02-11T14:23:54.324Z,101968.91
2023-02-11T14:31:13.452Z,101974.19
2023-02-11T14:34:47.630Z,101975.69
2023-02-11T14:38:13.534Z,101969.09
2023-02-11T14:41:25.436Z,101970.50
2023-02-11T14:44:33.643Z,101965.22
2023-02-11T14:47:41.579Z,101985.63
2023-02-11T14:50:52.699Z,101984.09
2023-02-11T14:54:25.365Z,101976.94
2023-02-11T14:57:34.160Z,101981.75
2023-02-11T15:01:06.896Z,101981.50
2023-02-11T15:04:27.112Z,101973.28
2023-02-11T15:07:36.076Z,101974.63
2023-02-11T15:10:50.980Z,101980.97
2023-02-11T15:14:08.512Z,101984.97
2023-02-11T15:17:23.730Z,101966.44
2023-02-11T15:20:32.205Z,101977.69
2023-02-11T15:24:00.329Z,101988.06
2023-02-11T15:27:15.915Z,101989.72
2023-02-11T15:30:24.999Z,101977.06
2023-02-11T15:33:32.490Z,101992.06
2023-02-11T15:36:36.804Z,101981.34
2023-02-11T15:39:51.568Z,101991.09
2023-02-11T15:43:04.022Z,101986.19
2023-02-11T15:46:10.062Z,101984.53
2023-02-11T15:49:19.641Z,101994.56
2023-02-11T15:52:35.477Z,101980.34
2023-02-11T15:55:42.317Z,101984.78
2023-02-11T15:58:50.004Z,101971.84
2023-02-11T16:01:55.006Z,101973.91
2023-02-11T16:05:31.540Z,101986.16
2023-02-11T16:08:38.046Z,101976.94
2023-02-11T16:11:48.370Z,101974.78
2023-02-11T16:14:52.740Z,101978.72
2023-02-11T16:17:57.194Z,101977.78
2023-02-11T16:21:03.006Z,101980.31
2023-02-11T16:24:08.446Z,101978.66
2023-02-11T16:27:36.929Z,101976.69
2023-02-11T16:30:55.816Z,101968.84
2023-02-11T16:37:32.998Z,101980.25
2023-02-11T16:40:37.731Z,101978.03
2023-02-11T16:43:41.960Z,101963.56
2023-02-11T16:46:46.563Z,101973.09
2023-02-11T16:49:50.643Z,101960.75
2023-02-11T16:53:00.071Z,101964.03
2023-02-11T16:56:18.442Z,101971.50
2023-02-11T16:59:22.733Z,101970.34
2023-02-11T17:02:35.504Z,101966.59
2023-02-11T17:05:54.447Z,101969.06
2023-02-11T17:08:59.972Z,101971.97
2023-02-11T17:12:03.583Z,101964.47
2023-02-11T17:15:12.239Z,101968.19
2023-02-11T17:18:16.528Z,101961.03
2023-02-11T17:21:36.161Z,101955.81
2023-02-11T17:24:46.183Z,101951.59
2023-02-11T17:28:00.169Z,101955.75
2023-02-11T17:31:08.854Z,101954.78
2023-02-11T17:34:13.990Z,101956.91
2023-02-11T17:37:27.829Z,101964.69
2023-02-11T17:40:42.053Z,101943.50
2023-02-11T17:43:46.191Z,101951.06
2023-02-11T17:46:49.821Z,101950.19
2023-02-11T17:49:53.888Z,101946.78
2023-02-11T17:52:59.419Z,101949.22
2023-02-11T17:56:08.052Z,101943.97
2023-02-11T17:59:14.008Z,101940.38
2023-02-11T18:02:18.278Z,101949.03
2023-02-11T18:05:41.162Z,101942.72
2023-02-11T18:09:13.632Z,101941.03
2023-02-11T18:12:25.529Z,101942.75
2023-02-11T18:15:30.535Z,101948.75
2023-02-11T18:18:35.373Z,101960.84
2023-02-11T18:21:39.953Z,101959.94
2023-02-11T18:24:44.085Z,101951.47
2023-02-11T18:27:52.962Z,101955.59
2023-02-11T18:31:00.909Z,101939.38
2023-02-11T18:34:14.617Z,101942.31
2023-02-11T18:37:18.310Z,101942.63
2023-02-11T18:40:22.635Z,101947.00
2023-02-11T18:43:32.036Z,101947.38
2023-02-11T18:46:36.301Z,101941.03
2023-02-11T18:49:40.456Z,101932.56
2023-02-11T18:52:44.053Z,101945.38
2023-02-11T18:55:50.692Z,101946.56
2023-02-11T18:59:06.881Z,101943.38
2023-02-11T19:02:16.307Z,101940.09
2023-02-11T19:05:20.382Z,101940.41
2023-02-11T19:08:24.355Z,101943.41
2023-02-11T19:11:52.648Z,101941.44
2023-02-11T19:14:59.523Z,101947.88
2023-02-11T19:18:08.443Z,101944.63
2023-02-11T19:21:13.606Z,101945.78
2023-02-11T19:24:23.960Z,101940.41
2023-02-11T19:27:30.904Z,101948.16
2023-02-11T19:30:36.982Z,101944.88
2023-02-11T19:33:41.355Z,101932.38
2023-02-11T19:36:51.182Z,101935.16
2023-02-11T19:39:55.104Z,101933.81
2023-02-11T19:42:59.345Z,101934.19
2023-02-11T19:46:05.379Z,101944.69
2023-02-11T19:49:10.473Z,101942.66
2023-02-11T19:52:14.433Z,101950.00
2023-02-11T19:55:19.481Z,101951.78
2023-02-11T19:58:36.904Z,101941.88
2023-02-11T20:01:53.597Z,101949.78
2023-02-11T20:04:57.595Z,101951.25
2023-02-11T20:08:01.885Z,101938.19
2023-02-11T20:11:17.958Z,101919.09
2023-02-11T20:14:21.858Z,101912.75
2023-02-11T20:17:25.731Z,101912.03
2023-02-11T20:20:39.893Z,101911.69
2023-02-11T20:23:54.880Z,101908.19
2023-02-11T20:26:59.247Z,101912.69
2023-02-11T20:30:03.808Z,101920.47
2023-02-11T20:33:07.946Z,101913.16
2023-02-11T20:36:24.400Z,101911.19
2023-02-11T20:39:28.998Z,101912.84
2023-02-11T20:42:32.843Z,101915.88
2023-02-11T20:45:36.860Z,101911.00
2023-02-11T20:48:40.778Z,101927.59
2023-02-11T20:51:48.090Z,101917.81
2023-02-11T20:54:52.069Z,101944.97
2023-02-11T20:57:58.045Z,101940.63
2023-02-11T21:01:17.204Z,101941.78
2023-02-11T21:04:25.454Z,101938.34
2023-02-11T21:07:35.741Z,101939.34
2023-02-11T21:10:41.311Z,101939.34
2023-02-11T21:13:55.048Z,101941.06
2023-02-11T21:17:04.227Z,101930.50
2023-02-11T21:20:12.967Z,101930.09
2023-02-11T21:23:17.006Z,101914.22
2023-02-11T21:26:20.829Z,101927.56
2023-02-11T21:29:45.732Z,101922.97
2023-02-11T21:32:59.345Z,101915.47
2023-02-11T21:36:05.442Z,101926.09
2023-02-11T21:39:20.673Z,101930.53
2023-02-11T21:42:26.439Z,101944.59
2023-02-11T21:45:32.364Z,101936.16
2023-02-11T21:48:46.291Z,101928.91
2023-02-11T21:51:50.633Z,101926.84
2023-02-11T21:54:54.238Z,101921.13
2023-02-11T21:58:00.360Z,101926.97
2023-02-11T22:01:17.846Z,101931.75
2023-02-11T22:04:27.458Z,101930.09
2023-02-11T22:07:32.450Z,101938.88
2023-02-11T22:10:41.408Z,101932.59
2023-02-11T22:13:47.715Z,101917.84
2023-02-11T22:16:51.588Z,101915.97
2023-02-11T22:19:57.739Z,101918.88
2023-02-11T22:23:06.617Z,101926.31
2023-02-11T22:26:14.029Z,101932.03
2023-02-11T22:29:19.633Z,101935.03
2023-02-11T22:32:23.929Z,101932.16
2023-02-11T22:35:34.882Z,101928.47
2023-02-11T22:38:44.561Z,101934.78
2023-02-11T22:41:57.949Z,101930.13
2023-02-11T22:45:01.826Z,101921.88
2023-02-11T22:48:17.259Z,101930.81
2023-02-11T22:51:26.875Z,101936.31
2023-02-11T22:54:31.918Z,101916.38
2023-02-11T22:57:35.976Z,101923.03
2023-02-11T23:00:42.022Z,101944.84
2023-02-11T23:03:55.222Z,101933.13
2023-02-11T23:06:59.569Z,101921.41
2023-02-11T23:10:03.728Z,101919.38
2023-02-11T23:13:08.627Z,101929.91
2023-02-11T23:16:16.045Z,101912.75
2023-02-11T23:19:20.466Z,101908.91
2023-02-11T23:22:27.620Z,101930.09
2023-02-11T23:25:32.083Z,101923.66
2023-02-11T23:28:35.778Z,101918.41
2023-02-11T23:31:43.845Z,101918.44
2023-02-11T23:34:58.950Z,101892.63
2023-02-11T23:38:02.915Z,101901.81
2023-02-11T23:41:17.744Z,101894.59
2023-02-11T23:44:27.569Z,101910.94
2023-02-11T23:47:31.921Z,101917.28
2023-02-11T23:50:40.044Z,101902.44
2023-02-11T23:53:46.373Z,101901.31
2023-02-11T23:56:50.049Z,101907.75
2023-02-11T23:59:54.211Z,101912.00
